createdAt,value
2022-08-01T00:02:11.577Z,100.00
2022-08-01T00:07:13.710Z,100.00
2022-08-01T00:12:15.313Z,100.00
2022-08-01T00:17:16.925Z,100.00
2022-08-01T00:22:18.495Z,100.00
2022-08-01T00:27:21.150Z,100.00
2022-08-01T00:32:23.027Z,100.00
2022-08-01T00:37:24.531Z,100.00
2022-08-01T00:42:26.065Z,100.00
2022-08-01T00:47:27.579Z,100.00
2022-08-01T00:52:29.147Z,100.00
2022-08-01T00:58:02.221Z,100.00
2022-08-01T01:02:52.762Z,100.00
2022-08-01T01:08:03.138Z,100.00
2022-08-01T01:13:10.410Z,100.00
2022-08-01T01:18:20.638Z,100.00
2022-08-01T01:23:46.886Z,100.00
2022-08-01T01:29:12.253Z,100.00
2022-08-01T01:34:16.264Z,100.00
2022-08-01T01:39:18.641Z,100.00
2022-08-01T01:44:22.946Z,100.00
2022-08-01T01:49:26.824Z,100.00
2022-08-01T01:54:36.198Z,100.00
2022-08-01T01:59:40.515Z,100.00
2022-08-01T02:04:44.656Z,100.00
2022-08-01T02:09:47.955Z,100.00
2022-08-01T02:14:53.353Z,100.00
2022-08-01T02:19:55.461Z,100.00
2022-08-01T02:25:04.640Z,100.00
2022-08-01T02:30:08.310Z,100.00
2022-08-01T02:35:14.422Z,100.00
2022-08-01T02:40:18.294Z,100.00
2022-08-01T02:45:23.370Z,100.00
2022-08-01T02:50:27.424Z,100.00
2022-08-01T02:55:29.999Z,100.00
2022-08-01T03:00:33.331Z,100.00
2022-08-01T03:05:36.661Z,100.00
2022-08-01T03:10:40.876Z,100.00
2022-08-01T03:15:45.017Z,100.00
2022-08-01T03:20:47.070Z,100.00
2022-08-01T03:25:52.100Z,100.00
2022-08-01T03:30:54.351Z,100.00
2022-08-01T03:35:56.818Z,100.00
2022-08-01T03:41:03.588Z,100.00
2022-08-01T03:46:10.359Z,100.00
2022-08-01T03:51:13.549Z,100.00
2022-08-01T03:56:20.276Z,100.00
2022-08-01T04:01:22.298Z,100.00
2022-08-01T04:06:26.866Z,100.00
2022-08-01T04:11:29.482Z,100.00
2022-08-01T04:16:31.101Z,100.00
2022-08-01T04:21:33.857Z,100.00
2022-08-01T04:26:37.263Z,100.00
2022-08-01T04:31:42.999Z,100.00
2022-08-01T04:36:46.429Z,100.00
2022-08-01T04:41:48.761Z,100.00
2022-08-01T04:46:55.508Z,100.00
2022-08-01T04:51:58.695Z,100.00
2022-08-01T04:57:01.418Z,100.00
2022-08-01T05:02:03.314Z,100.00
2022-08-01T05:07:05.831Z,100.00
2022-08-01T05:12:08.545Z,100.00
2022-08-01T05:17:10.636Z,100.00
2022-08-01T05:22:12.331Z,100.00
2022-08-01T05:27:15.598Z,100.00
2022-08-01T05:32:18.170Z,100.00
2022-08-01T05:37:21.535Z,100.00
2022-08-01T05:42:23.147Z,100.00
2022-08-01T05:47:24.796Z,100.00
2022-08-01T05:52:26.347Z,100.00
2022-08-01T05:57:27.909Z,100.00
2022-08-01T06:02:29.684Z,100.00
2022-08-01T06:07:31.283Z,100.00
2022-08-01T06:12:36.924Z,100.00
2022-08-01T06:17:38.603Z,100.00
2022-08-01T06:22:40.145Z,100.00
2022-08-01T06:27:42.254Z,100.00
2022-08-01T06:32:43.836Z,100.00
2022-08-01T06:37:48.596Z,100.00
2022-08-01T06:42:50.849Z,100.00
2022-08-01T06:47:52.730Z,100.00
2022-08-01T06:52:54.339Z,100.00
2022-08-01T06:57:55.982Z,100.00
2022-08-01T07:02:59.646Z,100.00
2022-08-01T07:08:01.199Z,100.00
2022-08-01T07:13:02.803Z,100.00
2022-08-01T07:18:05.666Z,100.00
2022-08-01T07:23:07.358Z,100.00
2022-08-01T07:28:09.765Z,100.00
2022-08-01T07:33:11.909Z,100.00
2022-08-01T07:38:13.820Z,100.00
2022-08-01T07:43:15.370Z,100.00
2022-08-01T07:48:22.256Z,100.00
2022-08-01T07:53:24.036Z,100.00
2022-08-01T07:58:26.301Z,100.00
2022-08-01T08:03:27.947Z,100.00
2022-08-01T08:08:29.577Z,100.00
2022-08-01T08:13:31.268Z,100.00
2022-08-01T08:18:32.807Z,100.00
2022-08-01T08:23:53.267Z,99.45
2022-08-01T08:28:54.806Z,99.66
2022-08-01T08:33:56.741Z,98.14
2022-08-01T08:39:04.457Z,96.08
2022-08-01T08:44:10.038Z,94.86
2022-08-01T08:49:20.621Z,93.36
2022-08-01T08:54:29.146Z,91.64
2022-08-01T08:59:33.350Z,90.86
2022-08-01T09:09:56.781Z,89.28
2022-08-01T09:15:01.903Z,87.83
2022-08-01T09:20:04.055Z,88.12
2022-08-01T09:25:09.742Z,87.15
2022-08-01T09:30:23.695Z,85.81
2022-08-01T09:35:43.340Z,84.31
2022-08-01T09:40:49.993Z,85.45
2022-08-01T09:45:53.549Z,85.24
2022-08-01T09:51:04.042Z,83.32
2022-08-01T09:56:14.084Z,81.93
2022-08-01T10:01:15.831Z,80.96
2022-08-01T10:06:24.751Z,81.18
2022-08-01T10:11:27.428Z,80.89
2022-08-01T10:16:40.120Z,78.42
2022-08-01T10:21:57.436Z,74.97
2022-08-01T10:27:09.257Z,73.63
2022-08-01T10:32:11.204Z,71.88
2022-08-01T10:37:14.406Z,71.84
2022-08-01T10:42:18.822Z,71.63
2022-08-01T10:47:50.599Z,71.16
2022-08-01T10:53:23.203Z,72.19
2022-08-01T10:58:42.752Z,72.61
2022-08-01T11:04:03.077Z,74.61
2022-08-01T11:09:12.701Z,75.03
2022-08-01T11:14:25.939Z,75.46
2022-08-01T11:20:07.800Z,75.15
2022-08-01T11:25:09.560Z,74.20
2022-08-01T11:30:15.186Z,72.42
2022-08-01T11:35:21.795Z,71.57
2022-08-01T11:40:28.023Z,73.15
2022-08-01T11:45:48.675Z,73.84
2022-08-01T11:50:54.590Z,73.63
2022-08-01T11:55:56.379Z,72.24
2022-08-01T12:00:59.338Z,71.17
2022-08-01T12:06:01.800Z,70.34
2022-08-01T12:11:06.930Z,69.87
2022-08-01T12:16:10.136Z,69.86
2022-08-01T12:21:11.747Z,67.65
2022-08-01T12:26:25.856Z,66.94
2022-08-01T12:31:33.804Z,67.77
2022-08-01T12:36:38.102Z,66.90
2022-08-01T12:41:39.662Z,67.85
2022-08-01T12:46:44.492Z,66.30
2022-08-01T12:51:46.508Z,65.55
2022-08-01T12:56:59.464Z,64.67
2022-08-01T13:02:09.720Z,63.65
2022-08-01T13:07:11.317Z,63.48
2022-08-01T13:12:13.231Z,62.90
2022-08-01T13:17:34.132Z,62.93
2022-08-01T13:22:37.579Z,61.77
2022-08-01T13:27:39.676Z,61.16
2022-08-01T13:32:59.947Z,62.37
2022-08-01T13:38:01.498Z,61.38
2022-08-01T13:43:03.372Z,61.25
2022-08-01T13:48:12.763Z,60.55
2022-08-01T13:53:20.243Z,60.03
2022-08-01T13:58:21.847Z,61.02
2022-08-01T14:03:27.125Z,61.39
2022-08-01T14:08:35.486Z,61.25
2022-08-01T14:13:39.441Z,61.80
2022-08-01T14:18:48.288Z,60.96
2022-08-01T14:23:50.211Z,61.05
2022-08-01T14:28:51.852Z,60.67
2022-08-01T14:33:53.502Z,59.16
2022-08-01T14:38:55.194Z,59.06
2022-08-01T14:44:03.387Z,59.42
2022-08-01T14:49:05.018Z,59.30
2022-08-01T14:54:07.057Z,57.87
2022-08-01T14:59:10.917Z,58.10
2022-08-01T15:04:23.459Z,58.66
2022-08-01T15:09:25.277Z,58.41
2022-08-01T15:14:45.358Z,57.34
2022-08-01T15:19:52.214Z,58.36
2022-08-01T15:24:57.555Z,57.82
2022-08-01T15:30:02.117Z,57.56
2022-08-01T15:35:03.965Z,57.83
2022-08-01T15:40:06.154Z,57.12
2022-08-01T15:45:10.679Z,56.97
2022-08-01T15:50:15.046Z,57.08
2022-08-01T15:55:16.656Z,56.98
2022-08-01T16:00:18.380Z,57.96
2022-08-01T16:05:20.306Z,55.77
2022-08-01T16:10:24.645Z,56.77
2022-08-01T16:15:34.797Z,55.96
2022-08-01T16:20:44.594Z,55.71
2022-08-01T16:25:49.410Z,54.06
2022-08-01T16:31:04.972Z,53.95
2022-08-01T16:36:17.031Z,52.65
2022-08-01T16:41:19.855Z,53.74
2022-08-01T16:46:23.827Z,54.18
2022-08-01T16:51:25.457Z,54.79
2022-08-01T16:56:26.992Z,54.23
2022-08-01T17:01:59.011Z,54.62
2022-08-01T17:06:52.308Z,53.87
2022-08-01T17:11:53.922Z,54.38
2022-08-01T17:16:55.624Z,55.76
2022-08-01T17:21:57.197Z,56.34
2022-08-01T17:26:58.805Z,56.64
2022-08-01T17:32:00.401Z,57.83
2022-08-01T17:37:02.440Z,58.78
2022-08-01T17:42:07.729Z,59.81
2022-08-01T17:47:09.721Z,60.26
2022-08-01T17:52:14.522Z,59.93
2022-08-01T17:57:16.545Z,60.18
2022-08-01T18:02:20.226Z,60.29
2022-08-01T18:07:22.387Z,62.22
2022-08-01T18:12:43.961Z,63.22
2022-08-01T18:17:45.563Z,62.64
2022-08-01T18:22:47.174Z,64.42
2022-08-01T18:28:23.388Z,64.40
2022-08-01T18:33:10.896Z,62.89
2022-08-01T18:38:16.320Z,64.28
2022-08-01T18:43:18.351Z,64.94
2022-08-01T18:48:20.316Z,64.56
2022-08-01T18:53:23.952Z,64.58
2022-08-01T18:58:25.654Z,65.38
2022-08-01T19:03:27.301Z,67.94
2022-08-01T19:08:28.836Z,70.30
2022-08-01T19:13:31.779Z,72.16
2022-08-01T19:18:33.901Z,73.49
2022-08-01T19:23:55.548Z,75.04
2022-08-01T19:29:01.822Z,76.27
2022-08-01T19:34:05.464Z,77.64
2022-08-01T19:39:07.709Z,79.20
2022-08-01T19:44:12.419Z,80.16
2022-08-01T19:49:23.670Z,80.81
2022-08-01T19:54:29.670Z,81.53
2022-08-01T19:59:37.082Z,82.58
2022-08-01T20:04:38.748Z,83.15
2022-08-01T20:09:41.859Z,83.97
2022-08-01T20:14:43.932Z,85.38
2022-08-01T20:19:45.476Z,86.36
2022-08-01T20:24:54.849Z,87.61
2022-08-01T20:29:58.403Z,88.38
2022-08-01T20:35:00.568Z,89.18
2022-08-01T20:40:02.876Z,89.80
2022-08-01T20:45:05.321Z,90.61
2022-08-01T20:50:27.069Z,90.67
2022-08-01T20:55:54.560Z,91.51
2022-08-01T21:00:57.365Z,92.27
2022-08-01T21:06:08.107Z,92.99
2022-08-01T21:11:16.079Z,93.52
2022-08-01T21:16:26.334Z,94.54
2022-08-01T21:21:27.934Z,95.08
2022-08-01T21:26:31.161Z,95.28
2022-08-01T21:31:40.763Z,95.72
2022-08-01T21:36:45.853Z,96.24
2022-08-01T21:41:56.512Z,96.71
2022-08-01T21:47:03.077Z,97.65
2022-08-01T21:52:10.739Z,98.29
2022-08-01T21:57:34.716Z,99.35
2022-08-01T22:02:42.240Z,99.80
2022-08-01T22:07:57.596Z,100.00
2022-08-01T22:12:59.184Z,100.00
2022-08-01T22:18:01.500Z,100.00
2022-08-01T22:23:05.118Z,100.00
2022-08-01T22:28:09.949Z,100.00
2022-08-01T22:33:17.178Z,100.00
2022-08-01T22:38:22.493Z,100.00
2022-08-01T22:43:30.157Z,100.00
2022-08-01T22:48:40.585Z,99.68
2022-08-01T22:54:02.550Z,96.60
2022-08-01T22:59:14.570Z,94.13
2022-08-01T23:04:33.880Z,91.58
2022-08-01T23:09:53.196Z,90.00
2022-08-01T23:14:58.081Z,89.11
2022-08-01T23:20:07.289Z,88.84
2022-08-01T23:25:11.986Z,87.90
2022-08-01T23:30:14.124Z,86.90
2022-08-01T23:35:15.641Z,86.93
2022-08-01T23:40:17.873Z,86.79
2022-08-01T23:45:19.526Z,87.00
2022-08-01T23:50:21.942Z,87.57
2022-08-01T23:55:36.803Z,88.25
